sensor_id;sensor_type;location;lat;lon;timestamp;pressure;altitude;pressure_sealevel;temperature;humidity
44839;BME280;30576;42.098;24.876;2023-04-01T00:00:54;98907.91;;;10.54;65.49
44839;BME280;30576;42.098;24.876;2023-04-01T00:03:20;98910.63;;;10.51;65.59
44839;BME280;30576;42.098;24.876;2023-04-01T00:05:45;98917.09;;;10.39;65.27
44839;BME280;30576;42.098;24.876;2023-04-01T00:08:11;98929.13;;;10.15;66.03
44839;BME280;30576;42.098;24.876;2023-04-01T00:10:36;98935.41;;;10.10;66.88
44839;BME280;30576;42.098;24.876;2023-04-01T00:13:02;98929.44;;;10.03;67.50
44839;BME280;30576;42.098;24.876;2023-04-01T00:15:27;98929.06;;;10.17;66.81
44839;BME280;30576;42.098;24.876;2023-04-01T00:17:53;98924.31;;;10.31;66.20
44839;BME280;30576;42.098;24.876;2023-04-01T00:20:19;98919.91;;;10.33;65.56
44839;BME280;30576;42.098;24.876;2023-04-01T00:22:45;98935.09;;;10.22;65.85
44839;BME280;30576;42.098;24.876;2023-04-01T00:25:10;98937.88;;;10.16;65.98
44839;BME280;30576;42.098;24.876;2023-04-01T00:27:36;98924.56;;;10.20;65.42
44839;BME280;30576;42.098;24.876;2023-04-01T00:30:01;98926.72;;;10.06;65.84
44839;BME280;30576;42.098;24.876;2023-04-01T00:32:27;98936.16;;;10.15;65.44
44839;BME280;30576;42.098;24.876;2023-04-01T00:34:52;98932.78;;;10.08;65.18
44839;BME280;30576;42.098;24.876;2023-04-01T00:37:18;98936.69;;;9.93;65.51
44839;BME280;30576;42.098;24.876;2023-04-01T00:39:44;98940.69;;;9.72;66.07
44839;BME280;30576;42.098;24.876;2023-04-01T00:42:09;98947.16;;;9.59;67.03
44839;BME280;30576;42.098;24.876;2023-04-01T00:44:36;98941.09;;;9.55;66.35
44839;BME280;30576;42.098;24.876;2023-04-01T00:47:02;98932.75;;;9.74;65.90
44839;BME280;30576;42.098;24.876;2023-04-01T00:49:31;98938.69;;;9.82;65.64
44839;BME280;30576;42.098;24.876;2023-04-01T00:51:58;98938.91;;;9.73;66.18
44839;BME280;30576;42.098;24.876;2023-04-01T00:54:24;98936.47;;;9.65;65.67
44839;BME280;30576;42.098;24.876;2023-04-01T00:56:54;98935.38;;;9.36;67.21
44839;BME280;30576;42.098;24.876;2023-04-01T00:59:34;98932.59;;;9.44;66.80
44839;BME280;30576;42.098;24.876;2023-04-01T01:02:00;98928.94;;;9.49;66.51
44839;BME280;30576;42.098;24.876;2023-04-01T01:04:27;98928.41;;;9.34;65.51
44839;BME280;30576;42.098;24.876;2023-04-01T01:12:20;98923.31;;;8.85;67.64
44839;BME280;30576;42.098;24.876;2023-04-01T01:14:53;98924.09;;;8.89;68.92
44839;BME280;30576;42.098;24.876;2023-04-01T01:17:26;98921.03;;;9.10;68.17
44839;BME280;30576;42.098;24.876;2023-04-01T01:19:57;98926.34;;;9.07;68.04
44839;BME280;30576;42.098;24.876;2023-04-01T01:22:33;98923.59;;;9.13;67.99
44839;BME280;30576;42.098;24.876;2023-04-01T01:27:39;98917.44;;;9.14;67.76
44839;BME280;30576;42.098;24.876;2023-04-01T01:30:14;98915.66;;;9.15;67.39
44839;BME280;30576;42.098;24.876;2023-04-01T01:37:56;98927.28;;;9.45;67.63
44839;BME280;30576;42.098;24.876;2023-04-01T01:40:24;98928.38;;;9.35;68.60
44839;BME280;30576;42.098;24.876;2023-04-01T01:42:52;98920.44;;;9.37;68.59
44839;BME280;30576;42.098;24.876;2023-04-01T01:45:19;98914.31;;;9.36;68.94
44839;BME280;30576;42.098;24.876;2023-04-01T01:47:46;98920.06;;;9.54;68.99
44839;BME280;30576;42.098;24.876;2023-04-01T01:50:13;98910.72;;;9.40;69.37
44839;BME280;30576;42.098;24.876;2023-04-01T01:52:39;98906.13;;;9.50;69.51
44839;BME280;30576;42.098;24.876;2023-04-01T01:57:49;98921.41;;;9.32;69.69
44839;BME280;30576;42.098;24.876;2023-04-01T02:00:15;98907.25;;;8.99;71.79
44839;BME280;30576;42.098;24.876;2023-04-01T02:02:42;98894.97;;;8.98;71.84
44839;BME280;30576;42.098;24.876;2023-04-01T02:05:15;98897.81;;;9.28;71.18
44839;BME280;30576;42.098;24.876;2023-04-01T02:07:41;98889.44;;;9.49;70.65
44839;BME280;30576;42.098;24.876;2023-04-01T02:10:08;98894.47;;;9.59;70.36
44839;BME280;30576;42.098;24.876;2023-04-01T02:12:34;98890.91;;;9.61;70.47
44839;BME280;30576;42.098;24.876;2023-04-01T02:15:03;98889.31;;;9.54;70.59
44839;BME280;30576;42.098;24.876;2023-04-01T02:17:31;98886.47;;;9.63;70.40
44839;BME280;30576;42.098;24.876;2023-04-01T02:19:58;98879.31;;;9.70;70.03
44839;BME280;30576;42.098;24.876;2023-04-01T02:22:28;98873.59;;;9.51;70.01
44839;BME280;30576;42.098;24.876;2023-04-01T02:24:57;98880.34;;;9.63;69.99
44839;BME280;30576;42.098;24.876;2023-04-01T02:27:22;98888.41;;;9.57;69.73
44839;BME280;30576;42.098;24.876;2023-04-01T02:29:48;98899.25;;;9.43;70.10
44839;BME280;30576;42.098;24.876;2023-04-01T02:32:14;98904.25;;;9.54;70.65
44839;BME280;30576;42.098;24.876;2023-04-01T02:34:40;98911.31;;;9.53;69.48
44839;BME280;30576;42.098;24.876;2023-04-01T02:37:07;98908.69;;;9.53;69.97
44839;BME280;30576;42.098;24.876;2023-04-01T02:39:32;98895.63;;;9.48;69.67
44839;BME280;30576;42.098;24.876;2023-04-01T02:41:57;98879.78;;;9.50;69.85
44839;BME280;30576;42.098;24.876;2023-04-01T02:44:23;98871.94;;;9.48;70.79
44839;BME280;30576;42.098;24.876;2023-04-01T02:46:48;98875.59;;;9.41;70.91
44839;BME280;30576;42.098;24.876;2023-04-01T02:49:13;98869.53;;;9.38;71.04
44839;BME280;30576;42.098;24.876;2023-04-01T02:51:39;98868.75;;;9.32;72.10
44839;BME280;30576;42.098;24.876;2023-04-01T02:54:04;98876.63;;;9.34;71.69
44839;BME280;30576;42.098;24.876;2023-04-01T02:56:30;98884.63;;;9.29;72.88
44839;BME280;30576;42.098;24.876;2023-04-01T02:58:55;98884.44;;;9.37;71.74
44839;BME280;30576;42.098;24.876;2023-04-01T03:01:20;98894.09;;;9.38;71.03
44839;BME280;30576;42.098;24.876;2023-04-01T03:03:46;98886.38;;;9.30;71.08
44839;BME280;30576;42.098;24.876;2023-04-01T03:06:12;98876.56;;;9.37;70.66
44839;BME280;30576;42.098;24.876;2023-04-01T03:08:38;98879.16;;;9.39;71.14
44839;BME280;30576;42.098;24.876;2023-04-01T03:11:04;98860.44;;;9.51;70.35
44839;BME280;30576;42.098;24.876;2023-04-01T03:13:30;98858.09;;;9.39;71.81
44839;BME280;30576;42.098;24.876;2023-04-01T03:15:55;98868.75;;;9.32;71.87
44839;BME280;30576;42.098;24.876;2023-04-01T03:18:21;98860.06;;;9.30;71.14
44839;BME280;30576;42.098;24.876;2023-04-01T03:20:46;98863.53;;;9.31;71.46
44839;BME280;30576;42.098;24.876;2023-04-01T03:23:11;98868.56;;;9.03;71.66
44839;BME280;30576;42.098;24.876;2023-04-01T03:25:37;98870.97;;;8.73;72.89
44839;BME280;30576;42.098;24.876;2023-04-01T03:28:02;98875.63;;;9.01;72.71
44839;BME280;30576;42.098;24.876;2023-04-01T03:30:28;98874.75;;;9.00;73.14
44839;BME280;30576;42.098;24.876;2023-04-01T03:32:56;98869.38;;;9.05;72.18
44839;BME280;30576;42.098;24.876;2023-04-01T03:35:21;98879.72;;;9.14;72.35
44839;BME280;30576;42.098;24.876;2023-04-01T03:37:46;98873.66;;;9.10;72.62
44839;BME280;30576;42.098;24.876;2023-04-01T03:40:12;98857.31;;;8.96;73.37
44839;BME280;30576;42.098;24.876;2023-04-01T03:42:37;98860.66;;;9.03;72.62
44839;BME280;30576;42.098;24.876;2023-04-01T03:45:03;98851.84;;;9.05;72.69
44839;BME280;30576;42.098;24.876;2023-04-01T03:47:29;98842.25;;;9.03;72.56
44839;BME280;30576;42.098;24.876;2023-04-01T03:49:54;98837.97;;;8.99;72.44
44839;BME280;30576;42.098;24.876;2023-04-01T03:52:20;98846.97;;;8.88;71.40
44839;BME280;30576;42.098;24.876;2023-04-01T03:54:45;98847.09;;;8.82;71.78
44839;BME280;30576;42.098;24.876;2023-04-01T03:57:11;98852.22;;;8.88;71.52
44839;BME280;30576;42.098;24.876;2023-04-01T03:59:36;98847.97;;;8.81;71.73
44839;BME280;30576;42.098;24.876;2023-04-01T04:02:01;98840.75;;;8.91;71.54
44839;BME280;30576;42.098;24.876;2023-04-01T04:04:27;98839.88;;;8.92;71.09
44839;BME280;30576;42.098;24.876;2023-04-01T04:06:52;98842.75;;;8.80;71.19
44839;BME280;30576;42.098;24.876;2023-04-01T04:09:17;98836.44;;;8.88;70.62
44839;BME280;30576;42.098;24.876;2023-04-01T04:11:43;98833.97;;;8.81;70.82
44839;BME280;30576;42.098;24.876;2023-04-01T04:14:08;98825.28;;;8.77;71.37
44839;BME280;30576;42.098;24.876;2023-04-01T04:16:34;98819.69;;;8.52;72.83
44839;BME280;30576;42.098;24.876;2023-04-01T04:19:01;98823.81;;;8.64;72.05
44839;BME280;30576;42.098;24.876;2023-04-01T04:21:26;98830.91;;;8.58;72.69
44839;BME280;30576;42.098;24.876;2023-04-01T04:23:52;98824.50;;;8.72;72.56
44839;BME280;30576;42.098;24.876;2023-04-01T04:26:17;98831.44;;;8.76;72.49
44839;BME280;30576;42.098;24.876;2023-04-01T04:28:42;98840.06;;;8.83;72.52
44839;BME280;30576;42.098;24.876;2023-04-01T04:31:08;98841.72;;;8.88;72.24
44839;BME280;30576;42.098;24.876;2023-04-01T04:33:34;98834.75;;;8.86;72.31
44839;BME280;30576;42.098;24.876;2023-04-01T04:36:02;98836.97;;;9.04;71.90
44839;BME280;30576;42.098;24.876;2023-04-01T04:38:28;98837.81;;;8.64;73.69
44839;BME280;30576;42.098;24.876;2023-04-01T04:40:53;98841.00;;;8.78;74.44
44839;BME280;30576;42.098;24.876;2023-04-01T04:43:19;98838.91;;;8.96;74.19
44839;BME280;30576;42.098;24.876;2023-04-01T04:45:45;98830.78;;;9.07;74.87
44839;BME280;30576;42.098;24.876;2023-04-01T04:48:11;98834.66;;;9.28;74.32
44839;BME280;30576;42.098;24.876;2023-04-01T04:50:41;98839.41;;;9.49;72.95
44839;BME280;30576;42.098;24.876;2023-04-01T04:53:08;98836.41;;;9.65;72.18
44839;BME280;30576;42.098;24.876;2023-04-01T04:55:34;98828.66;;;9.95;71.38
44839;BME280;30576;42.098;24.876;2023-04-01T04:57:59;98837.44;;;9.94;71.01
44839;BME280;30576;42.098;24.876;2023-04-01T05:00:25;98843.47;;;9.97;70.83
44839;BME280;30576;42.098;24.876;2023-04-01T05:02:50;98787.22;;;9.67;70.83
44839;BME280;30576;42.098;24.876;2023-04-01T05:05:15;98838.78;;;10.10;70.42
44839;BME280;30576;42.098;24.876;2023-04-01T05:07:41;98839.44;;;10.18;70.28
44839;BME280;30576;42.098;24.876;2023-04-01T05:10:06;98830.97;;;10.40;69.44
44839;BME280;30576;42.098;24.876;2023-04-01T05:12:31;98825.06;;;10.62;69.23
44839;BME280;30576;42.098;24.876;2023-04-01T05:15:01;98822.00;;;10.77;68.40
44839;BME280;30576;42.098;24.876;2023-04-01T05:17:26;98820.88;;;10.84;68.28
44839;BME280;30576;42.098;24.876;2023-04-01T05:19:52;98820.47;;;10.68;69.67
44839;BME280;30576;42.098;24.876;2023-04-01T05:22:17;98813.50;;;10.66;70.52
44839;BME280;30576;42.098;24.876;2023-04-01T05:24:42;98827.97;;;10.82;69.86
44839;BME280;30576;42.098;24.876;2023-04-01T05:27:08;98837.03;;;11.03;69.50
44839;BME280;30576;42.098;24.876;2023-04-01T05:29:33;98819.69;;;11.23;68.86
44839;BME280;30576;42.098;24.876;2023-04-01T05:31:58;98822.34;;;11.51;68.41
44839;BME280;30576;42.098;24.876;2023-04-01T05:34:23;98821.44;;;11.51;67.94
44839;BME280;30576;42.098;24.876;2023-04-01T05:36:49;98813.63;;;11.47;68.25
44839;BME280;30576;42.098;24.876;2023-04-01T05:39:15;98818.25;;;11.41;68.14
44839;BME280;30576;42.098;24.876;2023-04-01T05:41:40;98816.50;;;11.68;67.25
44839;BME280;30576;42.098;24.876;2023-04-01T05:44:05;98823.69;;;11.63;67.04
44839;BME280;30576;42.098;24.876;2023-04-01T05:46:31;98810.28;;;11.69;67.10
44839;BME280;30576;42.098;24.876;2023-04-01T05:48:57;98799.41;;;11.25;68.08
44839;BME280;30576;42.098;24.876;2023-04-01T05:51:22;98801.19;;;10.96;69.87
44839;BME280;30576;42.098;24.876;2023-04-01T05:53:47;98790.06;;;10.86;69.98
44839;BME280;30576;42.098;24.876;2023-04-01T05:56:13;98783.56;;;10.68;70.92
44839;BME280;30576;42.098;24.876;2023-04-01T05:58:38;98780.81;;;10.42;72.20
44839;BME280;30576;42.098;24.876;2023-04-01T06:01:05;98763.00;;;10.18;72.41
44839;BME280;30576;42.098;24.876;2023-04-01T06:03:31;98753.94;;;9.96;74.12
44839;BME280;30576;42.098;24.876;2023-04-01T06:05:57;98752.53;;;10.15;74.67
44839;BME280;30576;42.098;24.876;2023-04-01T06:08:22;98754.16;;;10.21;74.80
44839;BME280;30576;42.098;24.876;2023-04-01T06:34:08;98725.09;;;11.37;73.71
44839;BME280;30576;42.098;24.876;2023-04-01T06:41:45;98725.88;;;11.39;72.36
44839;BME280;30576;42.098;24.876;2023-04-01T06:47:03;98719.81;;;11.37;73.23
44839;BME280;30576;42.098;24.876;2023-04-01T06:49:35;98713.53;;;11.40;74.13
44839;BME280;30576;42.098;24.876;2023-04-01T06:52:09;98721.75;;;11.57;73.34
44839;BME280;30576;42.098;24.876;2023-04-01T06:54:42;98732.44;;;11.79;71.91
44839;BME280;30576;42.098;24.876;2023-04-01T06:59:44;98727.81;;;12.35;70.39
44839;BME280;30576;42.098;24.876;2023-04-01T07:04:39;98725.38;;;12.52;69.38
44839;BME280;30576;42.098;24.876;2023-04-01T07:07:08;98719.78;;;12.84;70.85
44839;BME280;30576;42.098;24.876;2023-04-01T07:09:39;98726.34;;;12.74;69.27
44839;BME280;30576;42.098;24.876;2023-04-01T07:14:48;98725.00;;;12.85;67.73
44839;BME280;30576;42.098;24.876;2023-04-01T07:17:25;98699.22;;;12.68;69.33
44839;BME280;30576;42.098;24.876;2023-04-01T07:24:46;98698.06;;;13.18;68.18
44839;BME280;30576;42.098;24.876;2023-04-01T07:27:13;98693.31;;;13.49;68.17
44839;BME280;30576;42.098;24.876;2023-04-01T07:29:39;98691.38;;;13.73;66.52
44839;BME280;30576;42.098;24.876;2023-04-01T07:42:04;98678.84;;;13.97;67.39
44839;BME280;30576;42.098;24.876;2023-04-01T07:49:50;98665.69;;;14.33;64.59
44839;BME280;30576;42.098;24.876;2023-04-01T07:55:07;98652.34;;;14.35;63.89
44839;BME280;30576;42.098;24.876;2023-04-01T07:57:47;98654.50;;;14.65;64.31
44839;BME280;30576;42.098;24.876;2023-04-01T08:00:18;98660.88;;;14.61;62.45
44839;BME280;30576;42.098;24.876;2023-04-01T08:05:29;98665.59;;;14.92;61.52
44839;BME280;30576;42.098;24.876;2023-04-01T08:13:21;98636.38;;;15.45;60.35
44839;BME280;30576;42.098;24.876;2023-04-01T08:15:53;98643.72;;;15.22;60.81
44839;BME280;30576;42.098;24.876;2023-04-01T08:20:47;98634.97;;;15.37;60.98
44839;BME280;30576;42.098;24.876;2023-04-01T08:23:31;98631.47;;;15.37;60.68
44839;BME280;30576;42.098;24.876;2023-04-01T08:29:00;98619.34;;;15.31;62.08
44839;BME280;30576;42.098;24.876;2023-04-01T08:31:40;98618.94;;;15.39;60.22
44839;BME280;30576;42.098;24.876;2023-04-01T08:34:11;98615.34;;;15.22;62.98
44839;BME280;30576;42.098;24.876;2023-04-01T08:36:41;98620.44;;;15.45;60.80
44839;BME280;30576;42.098;24.876;2023-04-01T08:39:13;98624.31;;;15.72;60.75
44839;BME280;30576;42.098;24.876;2023-04-01T08:44:27;98598.13;;;16.14;60.04
44839;BME280;30576;42.098;24.876;2023-04-01T08:54:29;98581.22;;;15.66;59.88
44839;BME280;30576;42.098;24.876;2023-04-01T08:59:57;98582.75;;;15.87;58.80
44839;BME280;30576;42.098;24.876;2023-04-01T09:08:00;98551.16;;;16.61;56.36
44839;BME280;30576;42.098;24.876;2023-04-01T09:10:34;98558.72;;;16.69;56.18
44839;BME280;30576;42.098;24.876;2023-04-01T09:15:37;98530.75;;;16.45;56.40
44839;BME280;30576;42.098;24.876;2023-04-01T09:25:51;98511.94;;;16.79;55.94
44839;BME280;30576;42.098;24.876;2023-04-01T09:28:19;98503.38;;;16.74;55.58
44839;BME280;30576;42.098;24.876;2023-04-01T09:35:49;98478.41;;;16.60;56.22
44839;BME280;30576;42.098;24.876;2023-04-01T09:38:29;98471.72;;;16.83;55.18
44839;BME280;30576;42.098;24.876;2023-04-01T09:53:48;98458.47;;;16.98;56.69
44839;BME280;30576;42.098;24.876;2023-04-01T10:32:49;98379.97;;;18.41;54.30
44839;BME280;30576;42.098;24.876;2023-04-01T11:01:20;98298.00;;;19.19;48.93
44839;BME280;30576;42.098;24.876;2023-04-01T11:24:21;98255.91;;;19.58;48.43
44839;BME280;30576;42.098;24.876;2023-04-01T11:29:27;98246.59;;;19.16;50.33
44839;BME280;30576;42.098;24.876;2023-04-01T11:44:36;98212.47;;;19.43;50.65
44839;BME280;30576;42.098;24.876;2023-04-01T12:03:05;98179.34;;;17.96;53.96
44839;BME280;30576;42.098;24.876;2023-04-01T12:05:42;98182.28;;;17.66;55.13
44839;BME280;30576;42.098;24.876;2023-04-01T12:08:31;98192.34;;;17.88;55.72
44839;BME280;30576;42.098;24.876;2023-04-01T12:16:22;98178.00;;;17.63;55.92
44839;BME280;30576;42.098;24.876;2023-04-01T12:18:55;98168.97;;;17.66;56.75
44839;BME280;30576;42.098;24.876;2023-04-01T12:21:36;98149.13;;;17.83;56.70
44839;BME280;30576;42.098;24.876;2023-04-01T12:24:05;98147.94;;;17.87;54.50
44839;BME280;30576;42.098;24.876;2023-04-01T12:44:49;98098.22;;;18.24;54.98
44839;BME280;30576;42.098;24.876;2023-04-01T12:47:31;98094.91;;;18.58;54.91
44839;BME280;30576;42.098;24.876;2023-04-01T12:52:36;98094.34;;;18.66;54.49
44839;BME280;30576;42.098;24.876;2023-04-01T13:00:31;98083.84;;;18.75;54.39
44839;BME280;30576;42.098;24.876;2023-04-01T13:05:36;98072.06;;;18.78;52.82
44839;BME280;30576;42.098;24.876;2023-04-01T13:18:17;98062.91;;;19.18;53.94
44839;BME280;30576;42.098;24.876;2023-04-01T13:23:23;98040.53;;;19.99;51.39
44839;BME280;30576;42.098;24.876;2023-04-01T13:28:50;98053.56;;;20.04;50.56
44839;BME280;30576;42.098;24.876;2023-04-01T13:31:26;98045.84;;;19.65;50.55
44839;BME280;30576;42.098;24.876;2023-04-01T13:46:54;98190.34;;;17.51;52.68
44839;BME280;30576;42.098;24.876;2023-04-01T13:49:36;98198.72;;;17.05;53.93
44839;BME280;30576;42.098;24.876;2023-04-01T13:52:08;98212.19;;;16.89;54.86
44839;BME280;30576;42.098;24.876;2023-04-01T13:54:56;98217.13;;;16.81;54.59
44839;BME280;30576;42.098;24.876;2023-04-01T13:57:30;98232.75;;;16.58;54.65
44839;BME280;30576;42.098;24.876;2023-04-01T14:07:37;98274.06;;;16.06;59.09
44839;BME280;30576;42.098;24.876;2023-04-01T14:10:06;98291.81;;;15.75;63.93
44839;BME280;30576;42.098;24.876;2023-04-01T14:15:22;98311.16;;;14.99;70.77
44839;BME280;30576;42.098;24.876;2023-04-01T14:23:41;98323.34;;;14.37;72.58
44839;BME280;30576;42.098;24.876;2023-04-01T14:28:55;98334.13;;;14.67;70.47
44839;BME280;30576;42.098;24.876;2023-04-01T14:44:52;98303.00;;;15.97;66.12
44839;BME280;30576;42.098;24.876;2023-04-01T14:52:58;98282.94;;;16.36;64.47
44839;BME280;30576;42.098;24.876;2023-04-01T14:58:16;98276.88;;;16.62;63.69
44839;BME280;30576;42.098;24.876;2023-04-01T15:03:30;98273.25;;;16.78;61.58
44839;BME280;30576;42.098;24.876;2023-04-01T15:16:34;98270.03;;;16.87;59.55
44839;BME280;30576;42.098;24.876;2023-04-01T15:21:56;98266.13;;;16.50;59.01
44839;BME280;30576;42.098;24.876;2023-04-01T15:24:25;98265.84;;;16.25;59.93
44839;BME280;30576;42.098;24.876;2023-04-01T15:27:01;98279.91;;;15.97;60.49
44839;BME280;30576;42.098;24.876;2023-04-01T15:37:04;98255.31;;;15.79;62.57
44839;BME280;30576;42.098;24.876;2023-04-01T15:39:40;98257.03;;;15.80;63.24
44839;BME280;30576;42.098;24.876;2023-04-01T15:47:26;98273.63;;;15.84;63.44
44839;BME280;30576;42.098;24.876;2023-04-01T15:50:19;98270.81;;;15.71;63.59
44839;BME280;30576;42.098;24.876;2023-04-01T15:53:07;98269.25;;;15.52;63.23
44839;BME280;30576;42.098;24.876;2023-04-01T15:55:42;98264.81;;;15.37;63.81
44839;BME280;30576;42.098;24.876;2023-04-01T16:03:15;98263.78;;;15.24;63.78
44839;BME280;30576;42.098;24.876;2023-04-01T16:11:02;98274.91;;;15.46;63.02
44839;BME280;30576;42.098;24.876;2023-04-01T16:21:27;98306.53;;;15.35;62.92
44839;BME280;30576;42.098;24.876;2023-04-01T16:23:59;98307.94;;;15.26;63.31
44839;BME280;30576;42.098;24.876;2023-04-01T16:26:30;98325.63;;;15.26;63.60
44839;BME280;30576;42.098;24.876;2023-04-01T16:29:12;98326.69;;;15.39;62.50
44839;BME280;30576;42.098;24.876;2023-04-01T16:36:47;98337.81;;;15.30;62.70
44839;BME280;30576;42.098;24.876;2023-04-01T16:39:18;98340.56;;;15.28;62.86
44839;BME280;30576;42.098;24.876;2023-04-01T16:44:31;98334.75;;;15.21;63.17
44839;BME280;30576;42.098;24.876;2023-04-01T16:47:10;98329.78;;;15.15;63.85
44839;BME280;30576;42.098;24.876;2023-04-01T16:52:13;98356.91;;;15.04;64.32
44839;BME280;30576;42.098;24.876;2023-04-01T16:54:55;98366.06;;;14.99;65.04
44839;BME280;30576;42.098;24.876;2023-04-01T16:57:25;98368.44;;;14.88;66.67
44839;BME280;30576;42.098;24.876;2023-04-01T17:02:33;98373.25;;;14.46;73.07
44839;BME280;30576;42.098;24.876;2023-04-01T17:07:38;98364.25;;;14.48;74.48
44839;BME280;30576;42.098;24.876;2023-04-01T17:10:22;98373.47;;;14.24;76.50
44839;BME280;30576;42.098;24.876;2023-04-01T17:15:30;98368.50;;;14.18;76.95
44839;BME280;30576;42.098;24.876;2023-04-01T17:23:09;98322.75;;;14.65;73.30
44839;BME280;30576;42.098;24.876;2023-04-01T17:25:53;98339.13;;;14.73;72.51
44839;BME280;30576;42.098;24.876;2023-04-01T17:44:14;98356.59;;;14.77;70.61
44839;BME280;30576;42.098;24.876;2023-04-01T17:54:04;98387.84;;;14.37;70.48
44839;BME280;30576;42.098;24.876;2023-04-01T18:01:45;98524.84;;;13.24;77.40
44839;BME280;30576;42.098;24.876;2023-04-01T18:04:18;98526.13;;;13.55;71.11
44839;BME280;30576;42.098;24.876;2023-04-01T18:22:48;98554.53;;;13.51;62.57
44839;BME280;30576;42.098;24.876;2023-04-01T18:25:27;98549.72;;;13.61;62.03
44839;BME280;30576;42.098;24.876;2023-04-01T18:30:26;98563.03;;;13.78;60.66
44839;BME280;30576;42.098;24.876;2023-04-01T18:40:37;98570.06;;;13.79;62.65
44839;BME280;30576;42.098;24.876;2023-04-01T18:45:40;98580.19;;;13.51;66.03
44839;BME280;30576;42.098;24.876;2023-04-01T18:50:37;98585.81;;;13.22;65.24
44839;BME280;30576;42.098;24.876;2023-04-01T18:55:47;98605.03;;;12.85;65.66
44839;BME280;30576;42.098;24.876;2023-04-01T18:58:19;98612.63;;;12.72;65.63
44839;BME280;30576;42.098;24.876;2023-04-01T19:03:34;98620.25;;;12.80;65.25
44839;BME280;30576;42.098;24.876;2023-04-01T19:06:08;98618.56;;;12.77;65.52
44839;BME280;30576;42.098;24.876;2023-04-01T19:08:40;98617.47;;;12.83;65.39
44839;BME280;30576;42.098;24.876;2023-04-01T19:11:09;98630.72;;;12.61;65.80
44839;BME280;30576;42.098;24.876;2023-04-01T19:24:01;98625.03;;;12.48;66.02
44839;BME280;30576;42.098;24.876;2023-04-01T19:26:40;98631.53;;;12.41;66.32
44839;BME280;30576;42.098;24.876;2023-04-01T19:31:35;98623.25;;;12.26;66.84
44839;BME280;30576;42.098;24.876;2023-04-01T19:34:22;98616.00;;;12.31;67.07
44839;BME280;30576;42.098;24.876;2023-04-01T19:36:52;98624.06;;;12.28;66.32
44839;BME280;30576;42.098;24.876;2023-04-01T20:04:29;98654.94;;;12.04;64.69
44839;BME280;30576;42.098;24.876;2023-04-01T20:17:15;98659.91;;;11.63;65.79
44839;BME280;30576;42.098;24.876;2023-04-01T20:19:53;98674.81;;;11.65;65.86
44839;BME280;30576;42.098;24.876;2023-04-01T20:24:57;98669.75;;;11.59;66.58
44839;BME280;30576;42.098;24.876;2023-04-01T20:27:24;98678.19;;;11.44;66.66
44839;BME280;30576;42.098;24.876;2023-04-01T20:37:34;98710.31;;;11.32;67.14
44839;BME280;30576;42.098;24.876;2023-04-01T20:40:08;98713.00;;;11.30;66.86
44839;BME280;30576;42.098;24.876;2023-04-01T20:42:45;98717.69;;;11.47;66.04
44839;BME280;30576;42.098;24.876;2023-04-01T20:52:41;98735.53;;;11.40;64.84
44839;BME280;30576;42.098;24.876;2023-04-01T21:10:50;98759.47;;;11.36;65.05
44839;BME280;30576;42.098;24.876;2023-04-01T21:13:31;98759.66;;;11.56;64.72
44839;BME280;30576;42.098;24.876;2023-04-01T21:21:29;98781.44;;;11.36;65.85
44839;BME280;30576;42.098;24.876;2023-04-01T21:24:03;98782.44;;;11.32;66.31
44839;BME280;30576;42.098;24.876;2023-04-01T21:26:46;98780.56;;;11.62;65.53
44839;BME280;30576;42.098;24.876;2023-04-01T22:07:42;98773.19;;;11.72;64.25
44839;BME280;30576;42.098;24.876;2023-04-01T22:12:41;98780.16;;;11.75;64.07
44839;BME280;30576;42.098;24.876;2023-04-01T22:15:16;98775.06;;;11.69;63.87
44839;BME280;30576;42.098;24.876;2023-04-01T22:17:59;98784.84;;;11.67;64.44
44839;BME280;30576;42.098;24.876;2023-04-01T22:27:54;98790.97;;;11.67;63.56
44839;BME280;30576;42.098;24.876;2023-04-01T22:33:11;98780.63;;;11.61;63.05
44839;BME280;30576;42.098;24.876;2023-04-01T22:43:24;98777.34;;;10.99;64.56
44839;BME280;30576;42.098;24.876;2023-04-01T22:51:19;98787.16;;;11.22;62.72
44839;BME280;30576;42.098;24.876;2023-04-01T22:54:02;98792.19;;;11.30;62.58
44839;BME280;30576;42.098;24.876;2023-04-01T22:56:36;98794.78;;;11.32;61.83
44839;BME280;30576;42.098;24.876;2023-04-01T23:01:29;98799.03;;;11.37;61.37
44839;BME280;30576;42.098;24.876;2023-04-01T23:03:57;98801.59;;;11.39;61.61
44839;BME280;30576;42.098;24.876;2023-04-01T23:06:25;98800.66;;;11.40;61.61
44839;BME280;30576;42.098;24.876;2023-04-01T23:16:25;98805.44;;;11.28;62.09
44839;BME280;30576;42.098;24.876;2023-04-01T23:18:55;98820.91;;;11.41;61.75
44839;BME280;30576;42.098;24.876;2023-04-01T23:26:29;98808.09;;;11.55;61.31
44839;BME280;30576;42.098;24.876;2023-04-01T23:28:56;98813.31;;;11.57;61.21
44839;BME280;30576;42.098;24.876;2023-04-01T23:33:59;98812.97;;;11.68;60.00
44839;BME280;30576;42.098;24.876;2023-04-01T23:36:25;98813.22;;;11.60;60.00
44839;BME280;30576;42.098;24.876;2023-04-01T23:38:52;98814.97;;;11.34;60.93
44839;BME280;30576;42.098;24.876;2023-04-01T23:41:28;98791.56;;;10.93;60.87
44839;BME280;30576;42.098;24.876;2023-04-01T23:44:02;98819.25;;;10.80;61.54
44839;BME280;30576;42.098;24.876;2023-04-01T23:46:29;98818.97;;;10.89;61.34
44839;BME280;30576;42.098;24.876;2023-04-01T23:48:55;98817.53;;;10.79;61.90
44839;BME280;30576;42.098;24.876;2023-04-01T23:51:21;98822.09;;;11.02;61.06
44839;BME280;30576;42.098;24.876;2023-04-01T23:53:48;98831.16;;;10.93;61.47
44839;BME280;30576;42.098;24.876;2023-04-01T23:56:21;98828.16;;;10.76;62.07
44839;BME280;30576;42.098;24.876;2023-04-01T23:58:50;98838.44;;;10.85;62.46
